createdAt,value
2018-12-25T00:01:23.776Z,49.13
2018-12-25T00:04:07.433Z,51.40
2018-12-25T00:06:37.608Z,49.17
2018-12-25T00:09:08.266Z,52.07
2018-12-25T00:11:57.217Z,53.57
2018-12-25T00:14:38.814Z,46.23
2018-12-25T00:20:04.036Z,49.20
2018-12-25T00:25:29.730Z,51.00
2018-12-25T00:28:11.161Z,51.13
2018-12-25T00:33:46.850Z,44.27
2018-12-25T00:39:12.352Z,46.53
2018-12-25T00:44:37.455Z,44.30
2018-12-25T00:47:18.943Z,41.77
2018-12-25T00:50:00.925Z,38.67
2018-12-25T00:58:16.898Z,42.90
2018-12-25T01:00:59.762Z,41.73
2018-12-25T01:03:40.762Z,43.27
2018-12-25T01:06:22.031Z,45.20
2018-12-25T01:09:03.939Z,43.47
2018-12-25T01:11:45.685Z,46.30
2018-12-25T01:17:11.679Z,47.93
2018-12-25T01:19:53.308Z,50.57
2018-12-25T01:22:34.391Z,47.10
2018-12-25T01:28:00.732Z,45.43
2018-12-25T01:30:42.530Z,47.63
2018-12-25T01:33:22.819Z,47.03
2018-12-25T01:38:55.166Z,40.97
2018-12-25T01:41:33.891Z,41.40
2018-12-25T01:44:14.783Z,39.93
2018-12-25T01:49:44.796Z,44.37
2018-12-25T01:52:25.776Z,44.93
2018-12-25T01:55:07.056Z,42.17
2018-12-25T02:00:31.575Z,38.83
2018-12-25T02:05:54.714Z,40.40
2018-12-25T02:11:19.600Z,42.73
2018-12-25T02:14:00.902Z,41.83
2018-12-25T02:16:42.487Z,43.63
2018-12-25T02:19:24.126Z,41.57
2018-12-25T02:21:53.678Z,41.67
2018-12-25T02:24:42.742Z,41.77
2018-12-25T02:27:24.566Z,41.00
2018-12-25T02:30:05.577Z,41.80
2018-12-25T02:32:47.400Z,41.17
2018-12-25T02:35:27.326Z,42.63
2018-12-25T02:38:09.463Z,42.13
2018-12-25T02:40:50.927Z,41.63
2018-12-25T02:43:34.539Z,41.17
2018-12-25T02:49:00.134Z,39.97
2018-12-25T02:54:28.081Z,41.23
2018-12-25T02:59:54.428Z,41.20
2018-12-25T03:02:38.339Z,41.47
2018-12-25T03:08:10.798Z,41.90
2018-12-25T03:13:39.115Z,40.23
2018-12-25T03:16:20.957Z,41.20
2018-12-25T03:19:04.571Z,41.50
2018-12-25T03:21:49.053Z,40.97
2018-12-25T03:24:33.118Z,39.40
2018-12-25T03:30:00.318Z,39.40
2018-12-25T03:32:42.765Z,40.20
2018-12-25T03:35:28.692Z,39.87
2018-12-25T03:40:59.935Z,38.80
2018-12-25T03:43:41.507Z,38.13
2018-12-25T03:46:22.880Z,39.33
2018-12-25T03:49:04.601Z,37.90
2018-12-25T03:51:45.615Z,40.17
2018-12-25T03:57:00.557Z,40.80
2018-12-25T03:59:49.361Z,40.83
2018-12-25T04:02:40.508Z,40.00
2018-12-25T04:05:20.557Z,42.47
2018-12-25T04:08:02.041Z,41.63
2018-12-25T04:10:42.131Z,41.23
2018-12-25T04:13:25.152Z,41.27
2018-12-25T04:18:53.664Z,38.57
2018-12-25T04:24:22.326Z,40.37
2018-12-25T04:35:24.589Z,40.67
2018-12-25T04:40:52.352Z,42.40
2018-12-25T04:46:12.776Z,42.63
2018-12-25T04:48:56.363Z,39.63
2018-12-25T04:51:37.993Z,40.70
2018-12-25T04:54:22.238Z,40.40
2018-12-25T04:57:03.485Z,39.57
2018-12-25T04:59:45.123Z,37.70
2018-12-25T05:02:28.730Z,38.33
2018-12-25T05:05:10.993Z,39.03
2018-12-25T05:07:52.683Z,39.63
2018-12-25T05:10:33.006Z,37.77
2018-12-25T05:13:14.807Z,40.67
2018-12-25T05:18:41.943Z,39.37
2018-12-25T05:24:10.548Z,37.93
2018-12-25T05:29:37.829Z,37.37
2018-12-25T05:32:24.229Z,36.90
2018-12-25T05:40:43.050Z,35.70
2018-12-25T05:46:13.486Z,35.83
2018-12-25T05:48:56.716Z,34.30
2018-12-25T05:51:38.498Z,34.47
2018-12-25T05:54:23.982Z,33.60
2018-12-25T05:57:06.909Z,33.90
2018-12-25T06:02:36.928Z,31.20
2018-12-25T06:05:20.851Z,29.07
2018-12-25T06:08:05.368Z,28.43
2018-12-25T06:10:35.301Z,27.83
2018-12-25T06:13:24.007Z,26.53
2018-12-25T06:16:12.662Z,26.90
2018-12-25T06:21:50.891Z,24.93
2018-12-25T06:24:32.257Z,24.40
2018-12-25T06:27:14.202Z,24.53
2018-12-25T06:32:44.653Z,24.83
2018-12-25T06:35:24.868Z,23.07
2018-12-25T06:38:08.401Z,23.37
2018-12-25T06:40:52.505Z,22.30
2018-12-25T06:43:28.622Z,22.87
2018-12-25T06:48:55.424Z,21.90
2018-12-25T06:51:36.919Z,21.53
2018-12-25T06:57:11.806Z,20.77
2018-12-25T06:59:55.375Z,21.07
2018-12-25T07:02:35.111Z,20.87
2018-12-25T07:08:05.663Z,21.13
2018-12-25T07:10:47.691Z,21.30
2018-12-25T07:21:52.435Z,21.63
2018-12-25T07:24:33.971Z,20.77
2018-12-25T07:27:16.514Z,22.17
2018-12-25T07:29:58.067Z,20.27
2018-12-25T07:32:42.764Z,19.13
2018-12-25T07:35:26.190Z,19.90
2018-12-25T07:38:06.887Z,21.33
2018-12-25T07:43:32.586Z,19.73
2018-12-25T07:48:59.410Z,21.83
2018-12-25T07:54:30.291Z,21.17
2018-12-25T07:59:58.315Z,22.63
2018-12-25T08:02:39.763Z,23.07
2018-12-25T08:05:25.019Z,22.83
2018-12-25T08:08:12.637Z,22.70
2018-12-25T08:10:56.646Z,22.73
2018-12-25T08:13:37.713Z,23.70
2018-12-25T08:16:22.581Z,24.23
2018-12-25T08:21:50.588Z,23.27
2018-12-25T08:24:31.662Z,25.57
2018-12-25T08:27:12.653Z,24.03
2018-12-25T08:29:56.662Z,23.57
2018-12-25T08:35:22.146Z,25.30
2018-12-25T08:38:10.851Z,24.97
2018-12-25T08:40:55.037Z,24.33
2018-12-25T08:43:36.652Z,22.60
2018-12-25T08:46:17.447Z,23.97
2018-12-25T08:51:46.277Z,25.47
2018-12-25T08:57:11.946Z,25.83
2018-12-25T09:02:38.177Z,28.10
2018-12-25T09:05:19.725Z,27.10
2018-12-25T09:08:01.221Z,30.90
2018-12-25T09:10:43.288Z,28.93
2018-12-25T09:13:25.211Z,26.90
2018-12-25T09:18:51.123Z,28.60
2018-12-25T09:24:30.033Z,28.77
2018-12-25T09:27:11.623Z,27.90
2018-12-25T09:36:01.894Z,27.10
2018-12-25T09:41:28.000Z,26.30
2018-12-25T09:46:53.916Z,25.17
2018-12-25T09:49:37.302Z,26.13
2018-12-25T09:52:18.898Z,25.60
2018-12-25T09:55:00.405Z,27.00
2018-12-25T09:57:45.059Z,25.33
2018-12-25T10:00:26.323Z,25.33
2018-12-25T10:03:07.131Z,26.57
2018-12-25T10:05:48.302Z,24.57
2018-12-25T10:08:29.857Z,26.57
2018-12-25T10:13:50.135Z,24.23
2018-12-25T10:16:31.014Z,21.97
2018-12-25T10:19:12.668Z,22.90
2018-12-25T10:22:02.747Z,22.13
2018-12-25T10:24:38.292Z,21.13
2018-12-25T10:27:19.838Z,20.27
2018-12-25T10:30:01.247Z,25.57
2018-12-25T10:32:31.366Z,22.60
2018-12-25T10:35:20.371Z,21.30
2018-12-25T10:38:04.763Z,21.10
2018-12-25T10:43:30.737Z,22.17
2018-12-25T10:46:11.793Z,22.00
2018-12-25T10:48:52.663Z,22.67
2018-12-25T10:51:34.221Z,25.20
2018-12-25T10:54:16.103Z,23.50
2018-12-25T10:56:57.537Z,22.90
2018-12-25T10:59:41.994Z,20.30
2018-12-25T11:02:23.367Z,22.77
2018-12-25T11:05:04.351Z,24.40
2018-12-25T11:07:46.304Z,22.10
2018-12-25T11:10:30.103Z,21.83
2018-12-25T11:16:07.611Z,21.57
2018-12-25T11:21:33.359Z,21.83
2018-12-25T11:27:03.050Z,19.83
2018-12-25T11:29:44.624Z,17.63
2018-12-25T11:35:15.122Z,18.37
2018-12-25T11:37:55.034Z,18.87
2018-12-25T11:40:35.858Z,20.43
2018-12-25T11:46:01.211Z,22.33
2018-12-25T11:48:42.844Z,19.10
2018-12-25T11:51:24.396Z,18.07
2018-12-25T11:54:06.114Z,21.20
2018-12-25T11:56:47.632Z,17.17
2018-12-25T11:59:29.753Z,17.50
2018-12-25T12:02:17.183Z,16.70
2018-12-25T12:07:35.411Z,19.80
2018-12-25T12:15:46.398Z,15.20
2018-12-25T12:18:28.004Z,15.40
2018-12-25T12:21:12.457Z,15.03
2018-12-25T12:26:28.783Z,15.87
2018-12-25T12:29:17.649Z,17.20
2018-12-25T12:31:59.474Z,14.43
2018-12-25T12:34:41.807Z,15.77
2018-12-25T12:37:22.988Z,18.20
2018-12-25T12:42:47.802Z,15.77
2018-12-25T12:48:13.408Z,16.57
2018-12-25T12:50:55.431Z,15.00
2018-12-25T12:53:24.971Z,19.93
2018-12-25T12:56:13.895Z,19.03
2018-12-25T12:58:55.212Z,17.60
2018-12-25T13:04:20.615Z,17.93
2018-12-25T13:07:01.672Z,19.10
2018-12-25T13:12:31.590Z,18.40
2018-12-25T13:15:13.172Z,22.17
2018-12-25T13:17:54.558Z,20.00
2018-12-25T13:20:36.314Z,18.07
2018-12-25T13:23:17.991Z,18.53
2018-12-25T13:28:43.668Z,17.97
2018-12-25T13:34:09.486Z,19.23
2018-12-25T13:36:51.542Z,17.10
2018-12-25T13:39:35.508Z,18.17
2018-12-25T13:44:49.714Z,21.37
2018-12-25T13:56:01.195Z,17.97
2018-12-25T13:58:42.268Z,18.07
2018-12-25T14:04:27.527Z,15.77
2018-12-25T14:07:11.624Z,16.80
2018-12-25T14:09:52.769Z,17.67
2018-12-25T14:15:37.970Z,17.83
2018-12-25T14:21:07.036Z,18.67
2018-12-25T14:23:50.976Z,18.37
2018-12-25T14:26:32.963Z,17.60
2018-12-25T14:29:14.342Z,19.70
2018-12-25T14:34:42.082Z,18.00
2018-12-25T14:37:23.772Z,20.07
2018-12-25T14:40:05.112Z,19.00
2018-12-25T14:42:49.132Z,18.67
2018-12-25T14:48:15.904Z,19.40
2018-12-25T14:50:57.063Z,19.30
2018-12-25T14:53:38.915Z,18.53
2018-12-25T14:56:22.633Z,18.73
2018-12-25T14:59:07.687Z,19.13
2018-12-25T15:01:49.101Z,19.60
2018-12-25T15:04:31.350Z,19.27
2018-12-25T15:10:00.938Z,19.93
2018-12-25T15:12:43.145Z,19.30
2018-12-25T15:15:26.071Z,19.67
2018-12-25T15:18:07.969Z,19.73
2018-12-25T15:20:52.560Z,20.57
2018-12-25T15:23:33.615Z,20.27
2018-12-25T15:28:59.244Z,19.93
2018-12-25T15:31:41.042Z,20.43
2018-12-25T15:34:22.855Z,20.97
2018-12-25T15:37:05.104Z,22.73
2018-12-25T15:39:49.822Z,24.43
2018-12-25T15:45:19.253Z,24.93
2018-12-25T15:50:46.078Z,28.23
2018-12-25T15:53:27.829Z,25.53
2018-12-25T15:56:09.456Z,29.50
2018-12-25T16:01:35.086Z,29.30
2018-12-25T16:04:16.499Z,29.67
2018-12-25T16:06:58.363Z,44.43
2018-12-25T16:12:21.865Z,27.83
2018-12-25T16:18:00.687Z,27.60
2018-12-25T16:20:42.343Z,31.20
2018-12-25T16:26:08.862Z,31.63
2018-12-25T16:28:52.178Z,30.40
2018-12-25T16:31:33.622Z,32.40
2018-12-25T16:34:15.187Z,35.00
2018-12-25T16:36:57.423Z,35.63
2018-12-25T16:42:25.028Z,40.47
2018-12-25T16:45:06.428Z,39.13
2018-12-25T16:47:48.303Z,38.93
2018-12-25T16:53:18.072Z,36.63
2018-12-25T16:58:43.463Z,34.43
2018-12-25T17:01:25.572Z,33.77
2018-12-25T17:04:06.813Z,35.87
2018-12-25T17:06:48.361Z,36.27
2018-12-25T17:09:30.501Z,36.83
2018-12-25T17:12:11.929Z,38.13
2018-12-25T17:17:44.435Z,37.07
2018-12-25T17:25:58.415Z,34.90
2018-12-25T17:28:40.133Z,34.93
2018-12-25T17:31:24.736Z,33.73
2018-12-25T17:36:50.309Z,32.27
2018-12-25T17:45:02.614Z,30.87
2018-12-25T17:47:44.085Z,31.80
2018-12-25T17:50:25.102Z,33.47
2018-12-25T17:53:07.371Z,35.47
2018-12-25T17:55:48.728Z,37.13
2018-12-25T18:01:19.296Z,36.93
2018-12-25T18:06:45.788Z,37.90
2018-12-25T18:09:28.401Z,39.67
2018-12-25T18:12:12.270Z,42.77
2018-12-25T18:14:54.495Z,41.47
2018-12-25T18:17:38.567Z,35.40
2018-12-25T18:20:19.768Z,36.23
2018-12-25T18:23:03.823Z,35.60
2018-12-25T18:25:46.465Z,36.07
2018-12-25T18:28:28.348Z,38.47
2018-12-25T18:33:52.222Z,38.23
2018-12-25T18:39:19.633Z,36.57
2018-12-25T18:42:01.796Z,40.07
2018-12-25T18:44:43.561Z,41.30
2018-12-25T18:47:28.301Z,41.03
2018-12-25T18:52:53.942Z,41.60
2018-12-25T18:58:19.755Z,39.83
2018-12-25T19:03:44.982Z,39.87
2018-12-25T19:09:15.682Z,40.23
2018-12-25T19:14:43.783Z,45.27
2018-12-25T19:17:26.114Z,47.90
2018-12-25T19:20:08.008Z,47.63
2018-12-25T19:22:49.610Z,45.47
2018-12-25T19:25:34.863Z,47.80
2018-12-25T19:28:16.424Z,48.43
2018-12-25T19:30:57.798Z,49.30
2018-12-25T19:33:39.323Z,45.80
2018-12-25T19:36:23.909Z,42.37
2018-12-25T19:39:05.354Z,45.80
2018-12-25T19:41:46.945Z,44.60
2018-12-25T19:44:27.392Z,49.07
2018-12-25T19:47:08.728Z,49.63
2018-12-25T19:49:49.905Z,54.23
2018-12-25T19:52:35.073Z,52.37
2018-12-25T19:58:07.057Z,55.50
2018-12-25T20:03:40.576Z,51.63
2018-12-25T20:06:22.219Z,57.07
2018-12-25T20:09:04.881Z,62.67
2018-12-25T20:11:46.592Z,68.13
2018-12-25T20:14:31.663Z,61.70
2018-12-25T20:19:59.660Z,51.33
2018-12-25T20:25:25.540Z,49.73
2018-12-25T20:28:07.398Z,49.20
2018-12-25T20:33:42.326Z,44.50
2018-12-25T20:36:24.361Z,44.53
2018-12-25T20:39:06.231Z,45.63
2018-12-25T20:41:47.667Z,44.50
2018-12-25T20:44:28.710Z,44.57
2018-12-25T20:52:45.883Z,41.50
2018-12-25T20:55:27.636Z,43.57
2018-12-25T20:58:12.075Z,42.53
2018-12-25T21:06:25.856Z,41.70
2018-12-25T21:11:57.427Z,44.60
2018-12-25T21:14:39.728Z,45.00
2018-12-25T21:17:21.383Z,41.07
2018-12-25T21:20:02.829Z,43.00
2018-12-25T21:22:46.662Z,41.13
2018-12-25T21:28:17.830Z,43.63
2018-12-25T21:31:01.183Z,45.20
2018-12-25T21:33:46.438Z,46.03
2018-12-25T21:36:28.064Z,48.43
2018-12-25T21:41:57.678Z,46.30
2018-12-25T21:44:39.300Z,46.47
2018-12-25T21:47:20.744Z,47.37
2018-12-25T21:50:04.821Z,48.67
2018-12-25T21:52:46.330Z,50.37
2018-12-25T21:55:28.000Z,52.80
2018-12-25T21:58:10.126Z,51.77
2018-12-25T22:00:51.885Z,48.10
2018-12-25T22:03:33.424Z,47.60
2018-12-25T22:06:17.964Z,46.67
2018-12-25T22:09:01.633Z,45.77
2018-12-25T22:11:42.712Z,43.80
2018-12-25T22:14:23.486Z,47.20
2018-12-25T22:17:04.933Z,44.27
2018-12-25T22:19:46.644Z,44.93
2018-12-25T22:22:27.709Z,45.10
2018-12-25T22:24:57.121Z,45.77
2018-12-25T22:27:45.624Z,45.70
2018-12-25T22:30:34.122Z,46.73
2018-12-25T22:33:15.692Z,46.73
2018-12-25T22:35:58.189Z,44.83
2018-12-25T22:38:38.951Z,47.10
2018-12-25T22:41:20.443Z,44.03
2018-12-25T22:44:01.933Z,48.10
2018-12-25T22:46:43.355Z,43.70
2018-12-25T22:49:24.420Z,44.50
2018-12-25T22:52:07.061Z,42.93
2018-12-25T22:54:48.506Z,44.13
2018-12-25T23:00:18.935Z,42.10
2018-12-25T23:03:01.145Z,44.80
2018-12-25T23:05:44.392Z,45.37
2018-12-25T23:08:25.675Z,45.60
2018-12-25T23:11:07.079Z,44.30
2018-12-25T23:13:47.815Z,43.60
2018-12-25T23:16:29.107Z,43.37
2018-12-25T23:19:10.730Z,42.10
2018-12-25T23:21:53.537Z,43.67
2018-12-25T23:24:23.064Z,43.80
2018-12-25T23:27:11.475Z,41.20
2018-12-25T23:29:59.918Z,43.43
2018-12-25T23:32:41.222Z,42.27
2018-12-25T23:35:22.281Z,42.20
2018-12-25T23:38:03.646Z,44.03
2018-12-25T23:43:40.828Z,43.63
2018-12-25T23:46:22.521Z,44.87
2018-12-25T23:49:03.156Z,43.43
2018-12-25T23:51:43.826Z,43.13
2018-12-25T23:54:25.286Z,43.57
2018-12-25T23:59:45.078Z,42.87
